Time,TemperatureF,DewpointF,PressureIn,WindDirection,WindDirectionDegrees,WindSpeedMPH,WindSpeedGustMPH,Humidity,HourlyPrecipIn,Conditions,Clouds,dailyrainin,SoftwareType,DateUTC
2013-01-19 00:00:00,40.1,23.0,30.35,South,180,3.0,0.0,50,0.00,,,0.00,VWS V14.01,2013-01-19 05:00:00,
2013-01-19 00:10:00,40.1,23.0,30.35,South,180,3.0,0.0,50,0.00,,,0.00,VWS V14.01,2013-01-19 05:10:00,
2013-01-19 00:20:00,40.1,23.0,30.35,South,180,3.0,0.0,50,0.00,,,0.00,VWS V14.01,2013-01-19 05:20:00,
2013-01-19 00:30:00,40.1,23.0,30.35,South,180,3.0,0.0,50,0.00,,,0.00,VWS V14.01,2013-01-19 05:30:00,
2013-01-19 00:40:00,40.1,23.0,30.35,South,180,3.0,0.0,50,0.00,,,0.00,VWS V14.01,2013-01-19 05:40:00,
2013-01-19 00:50:00,40.1,23.0,30.35,South,180,3.0,0.0,50,0.00,,,0.00,VWS V14.01,2013-01-19 05:50:00,
2013-01-19 01:00:00,40.1,23.0,30.35,South,180,3.0,0.0,50,0.00,,,0.00,VWS V14.01,2013-01-19 06:00:00,
2013-01-19 01:10:00,40.1,23.0,30.35,South,180,3.0,0.0,50,0.00,,,0.00,VWS V14.01,2013-01-19 06:10:00,
2013-01-19 01:20:00,40.1,23.0,30.35,South,180,3.0,0.0,50,0.00,,,0.00,VWS V14.01,2013-01-19 06:20:00,
2013-01-19 01:30:00,40.1,23.0,30.35,South,180,3.0,0.0,50,0.00,,,0.00,VWS V14.01,2013-01-19 06:30:00,
2013-01-19 01:40:00,40.1,23.0,30.35,South,180,3.0,0.0,50,0.00,,,0.00,VWS V14.01,2013-01-19 06:40:00,
2013-01-19 01:50:00,40.1,23.0,30.35,South,180,3.0,0.0,50,0.00,,,0.00,VWS V14.01,2013-01-19 06:50:00,
2013-01-19 02:00:00,40.1,23.0,30.35,South,180,3.0,0.0,50,0.00,,,0.00,VWS V14.01,2013-01-19 07:00:00,
2013-01-19 02:10:00,40.1,23.0,30.35,South,180,3.0,0.0,50,0.00,,,0.00,VWS V14.01,2013-01-19 07:10:00,
2013-01-19 02:20:00,40.1,23.0,30.34,South,180,3.0,0.0,50,0.00,,,0.00,VWS V14.01,2013-01-19 07:20:00,
2013-01-19 02:30:00,40.1,23.0,30.34,South,180,3.0,0.0,50,0.00,,,0.00,VWS V14.01,2013-01-19 07:30:00,
2013-01-19 02:40:00,40.1,23.0,30.34,South,180,3.0,0.0,50,0.00,,,0.00,VWS V14.01,2013-01-19 07:40:00,
2013-01-19 02:50:00,40.1,23.0,30.34,South,180,3.0,0.0,50,0.00,,,0.00,VWS V14.01,2013-01-19 07:50:00,
2013-01-19 03:00:00,40.1,23.0,30.34,South,180,3.0,0.0,50,0.00,,,0.00,VWS V14.01,2013-01-19 08:00:00,
2013-01-19 03:10:00,40.1,23.0,30.34,South,180,3.0,0.0,50,0.00,,,0.00,VWS V14.01,2013-01-19 08:10:00,
2013-01-19 03:20:00,40.1,23.0,30.35,South,180,3.0,0.0,50,0.00,,,0.00,VWS V14.01,2013-01-19 08:20:00,
2013-01-19 03:30:00,40.1,23.0,30.34,South,180,3.0,0.0,50,0.00,,,0.00,VWS V14.01,2013-01-19 08:30:00,
2013-01-19 03:40:00,40.1,23.0,30.34,South,180,3.0,0.0,50,0.00,,,0.00,VWS V14.01,2013-01-19 08:40:00,
2013-01-19 03:50:00,40.1,23.0,30.34,South,180,3.0,0.0,50,0.00,,,0.00,VWS V14.01,2013-01-19 08:50:00,
2013-01-19 04:00:00,40.1,23.0,30.34,South,180,3.0,0.0,50,0.00,,,0.00,VWS V14.01,2013-01-19 09:00:00,
2013-01-19 04:10:00,40.1,23.0,30.34,South,180,3.0,0.0,50,0.00,,,0.00,VWS V14.01,2013-01-19 09:10:00,
2013-01-19 04:20:00,40.1,23.0,30.33,South,180,3.0,0.0,50,0.00,,,0.00,VWS V14.01,2013-01-19 09:20:00,
2013-01-19 04:30:00,40.1,23.0,30.33,South,180,3.0,0.0,50,0.00,,,0.00,VWS V14.01,2013-01-19 09:30:00,
2013-01-19 04:40:00,40.1,23.0,30.33,South,180,3.0,0.0,50,0.00,,,0.00,VWS V14.01,2013-01-19 09:40:00,
2013-01-19 04:50:00,40.1,23.0,30.32,South,180,3.0,0.0,50,0.00,,,0.00,VWS V14.01,2013-01-19 09:50:00,
2013-01-19 05:00:00,40.1,23.0,30.32,South,180,3.0,0.0,50,0.00,,,0.00,VWS V14.01,2013-01-19 10:00:00,
2013-01-19 05:10:00,40.1,23.0,30.32,South,180,3.0,0.0,50,0.00,,,0.00,VWS V14.01,2013-01-19 10:10:00,
2013-01-19 05:20:00,40.1,23.0,30.32,South,180,3.0,0.0,50,0.00,,,0.00,VWS V14.01,2013-01-19 10:20:00,
2013-01-19 05:30:00,40.1,23.0,30.32,South,180,3.0,0.0,50,0.00,,,0.00,VWS V14.01,2013-01-19 10:30:00,
2013-01-19 05:40:00,40.1,23.0,30.32,South,180,3.0,0.0,50,0.00,,,0.00,VWS V14.01,2013-01-19 10:40:00,
2013-01-19 05:50:00,40.1,23.0,30.32,South,180,3.0,0.0,50,0.00,,,0.00,VWS V14.01,2013-01-19 10:50:00,
2013-01-19 06:00:00,40.1,23.0,30.32,South,180,3.0,0.0,50,0.00,,,0.00,VWS V14.01,2013-01-19 11:00:00,
2013-01-19 06:10:00,40.1,23.0,30.32,South,180,3.0,0.0,50,0.00,,,0.00,VWS V14.01,2013-01-19 11:10:00,
2013-01-19 06:20:00,40.1,23.0,30.32,South,180,3.0,0.0,50,0.00,,,0.00,VWS V14.01,2013-01-19 11:20:00,
2013-01-19 06:30:00,40.1,23.0,30.33,South,180,3.0,0.0,50,0.00,,,0.00,VWS V14.01,2013-01-19 11:30:00,
2013-01-19 06:40:00,40.1,23.0,30.33,South,180,3.0,0.0,50,0.00,,,0.00,VWS V14.01,2013-01-19 11:40:00,
2013-01-19 06:50:00,40.1,23.0,30.33,South,180,3.0,0.0,50,0.00,,,0.00,VWS V14.01,2013-01-19 11:50:00,
2013-01-19 07:00:00,35.3,22.8,30.32,South,180,4.0,6.0,60,0.00,,,0.00,VWS V14.01,2013-01-19 12:00:00,
2013-01-19 07:10:00,35.6,23.1,30.32,SSW,202,4.0,9.0,60,0.00,,,0.00,VWS V14.01,2013-01-19 12:10:00,
2013-01-19 07:20:00,35.8,23.3,30.32,SSW,202,4.0,8.0,60,0.00,,,0.00,VWS V14.01,2013-01-19 12:20:00,
2013-01-19 07:30:00,36.2,23.3,30.32,SSW,202,4.0,8.0,59,0.00,,,0.00,VWS V14.01,2013-01-19 12:30:00,
2013-01-19 07:40:00,36.8,23.8,30.32,SSW,202,4.0,8.0,59,0.00,,,0.00,VWS V14.01,2013-01-19 12:40:00,
2013-01-19 07:50:00,37.3,23.9,30.33,SSW,202,5.0,8.0,58,0.00,,,0.00,VWS V14.01,2013-01-19 12:50:00,
2013-01-19 08:00:00,37.8,24.4,30.33,SSW,202,5.0,8.0,58,0.00,,,0.00,VWS V14.01,2013-01-19 13:00:00,
2013-01-19 08:10:00,38.2,24.3,30.33,SSW,202,5.0,9.0,57,0.00,,,0.00,VWS V14.01,2013-01-19 13:10:00,
2013-01-19 08:20:00,38.8,24.9,30.33,SSW,202,5.0,10.0,57,0.00,,,0.00,VWS V14.01,2013-01-19 13:20:00,
2013-01-19 08:30:00,39.5,25.1,30.33,SSW,202,5.0,10.0,56,0.00,,,0.00,VWS V14.01,2013-01-19 13:30:00,
2013-01-19 08:40:00,40.3,25.4,30.33,SSW,202,4.0,9.0,55,0.00,,,0.00,VWS V14.01,2013-01-19 13:40:00,
2013-01-19 08:50:00,41.2,25.8,30.33,SSW,202,5.0,11.0,54,0.00,,,0.00,VWS V14.01,2013-01-19 13:50:00,
2013-01-19 09:00:00,42.2,26.3,30.32,SSW,202,5.0,11.0,53,0.00,,,0.00,VWS V14.01,2013-01-19 14:00:00,
2013-01-19 09:10:00,43.3,25.9,30.32,SSW,202,7.0,15.0,50,0.00,,,0.00,VWS V14.01,2013-01-19 14:10:00,
2013-01-19 09:20:00,44.3,24.8,30.32,SSW,202,6.0,16.0,46,0.00,,,0.00,VWS V14.01,2013-01-19 14:20:00,
2013-01-19 09:30:00,45.2,26.7,30.32,SSW,202,7.0,15.0,48,0.00,,,0.00,VWS V14.01,2013-01-19 14:30:00,
2013-01-19 09:40:00,46.1,26.0,30.32,SSW,202,8.0,18.0,45,0.00,,,0.00,VWS V14.01,2013-01-19 14:40:00,
2013-01-19 09:50:00,46.7,26.0,30.32,SW,225,8.0,18.0,44,0.00,,,0.00,VWS V14.01,2013-01-19 14:50:00,
2013-01-19 10:00:00,47.1,25.8,30.32,SW,225,8.0,15.0,43,0.00,,,0.00,VWS V14.01,2013-01-19 15:00:00,
2013-01-19 10:10:00,47.7,25.8,30.32,SW,225,7.0,14.0,42,0.00,,,0.00,VWS V14.01,2013-01-19 15:10:00,
2013-01-19 10:20:00,47.6,25.1,30.31,SW,225,10.0,19.0,41,0.00,,,0.00,VWS V14.01,2013-01-19 15:20:00,
2013-01-19 10:30:00,47.9,24.8,30.29,SSW,202,10.0,17.0,40,0.00,,,0.00,VWS V14.01,2013-01-19 15:30:00,
2013-01-19 10:40:00,48.2,25.6,30.29,SW,225,11.0,21.0,41,0.00,,,0.00,VWS V14.01,2013-01-19 15:40:00,
2013-01-19 10:50:00,48.9,25.7,30.28,SW,225,9.0,19.0,40,0.00,,,0.00,VWS V14.01,2013-01-19 15:50:00,
2013-01-19 11:00:00,48.9,24.4,30.27,SW,225,10.0,17.0,38,0.00,,,0.00,VWS V14.01,2013-01-19 16:00:00,
2013-01-19 11:10:00,49.1,25.2,30.27,SW,225,10.0,18.0,39,0.00,,,0.00,VWS V14.01,2013-01-19 16:10:00,
2013-01-19 11:20:00,49.2,24.7,30.25,SW,225,11.0,20.0,38,0.00,,,0.00,VWS V14.01,2013-01-19 16:20:00,
2013-01-19 11:30:00,49.9,26.0,30.24,SW,225,8.0,16.0,39,0.00,,,0.00,VWS V14.01,2013-01-19 16:30:00,
2013-01-19 11:40:00,50.4,25.8,30.24,SSW,202,8.0,18.0,38,0.00,,,0.00,VWS V14.01,2013-01-19 16:40:00,
2013-01-19 11:50:00,50.7,24.7,30.22,SW,225,10.0,21.0,36,0.00,,,0.00,VWS V14.01,2013-01-19 16:50:00,
2013-01-19 12:00:00,51.0,25.7,30.22,SSW,202,7.0,15.0,37,0.00,,,0.00,VWS V14.01,2013-01-19 17:00:00,
2013-01-19 12:10:00,50.8,26.1,30.22,SSW,202,9.0,17.0,38,0.00,,,0.00,VWS V14.01,2013-01-19 17:10:00,
2013-01-19 12:20:00,51.3,25.9,30.20,SSW,202,8.0,14.0,37,0.00,,,0.00,VWS V14.01,2013-01-19 17:20:00,
2013-01-19 12:30:00,51.4,24.0,30.19,SSW,202,9.0,16.0,34,0.00,,,0.00,VWS V14.01,2013-01-19 17:30:00,
2013-01-19 12:40:00,51.9,25.1,30.19,SSW,202,8.0,17.0,35,0.00,,,0.00,VWS V14.01,2013-01-19 17:40:00,
2013-01-19 12:50:00,52.5,25.7,30.18,SSW,202,7.0,14.0,35,0.00,,,0.00,VWS V14.01,2013-01-19 17:50:00,
2013-01-19 13:00:00,52.5,25.7,30.17,SSW,202,8.0,18.0,35,0.00,,,0.00,VWS V14.01,2013-01-19 18:00:00,
2013-01-19 13:10:00,52.6,25.8,30.17,SSW,202,8.0,16.0,35,0.00,,,0.00,VWS V14.01,2013-01-19 18:10:00,
2013-01-19 13:30:00,53.2,24.9,30.15,SSE,164,5.0,16.0,33,0.00,,,0.00,VWS V14.01,2013-01-19 18:30:00,
2013-01-19 13:31:00,53.3,25.0,30.15,South,170,6.0,16.0,33,0.00,,,0.00,VWS V14.01,2013-01-19 18:31:00,
2013-01-19 13:40:00,53.5,23.6,30.15,SSW,212,7.0,16.0,31,0.00,,,0.00,VWS V14.01,2013-01-19 18:40:00,
2013-01-19 13:41:00,53.5,23.6,30.15,SW,223,8.0,16.0,31,0.00,,,0.00,VWS V14.01,2013-01-19 18:41:00,
2013-01-19 13:46:00,53.5,22.9,30.14,South,180,4.0,16.0,30,0.00,,,0.00,VWS V14.01,2013-01-19 18:46:00,
2013-01-19 13:50:00,53.9,24.0,30.14,SW,217,5.0,16.0,31,0.00,,,0.00,VWS V14.01,2013-01-19 18:50:00,
2013-01-19 13:51:00,53.9,23.2,30.14,SSW,197,5.0,16.0,30,0.00,,,0.00,VWS V14.01,2013-01-19 18:51:00,
2013-01-19 13:57:00,54.1,23.4,30.14,South,190,10.0,16.0,30,0.00,,,0.00,VWS V14.01,2013-01-19 18:57:00,
2013-01-19 14:00:00,54.1,24.2,30.13,South,185,8.0,16.0,31,0.00,,,0.00,VWS V14.01,2013-01-19 19:00:00,
2013-01-19 14:02:00,54.1,23.4,30.13,SSW,213,8.0,16.0,30,0.00,,,0.00,VWS V14.01,2013-01-19 19:02:00,
2013-01-19 14:07:00,53.9,22.4,30.13,SSW,211,10.0,16.0,29,0.00,,,0.00,VWS V14.01,2013-01-19 19:07:00,
2013-01-19 14:10:00,53.8,22.3,30.13,SSW,202,8.0,18.0,29,0.00,,,0.00,VWS V14.01,2013-01-19 19:10:00,
2013-01-19 14:26:00,53.9,22.4,30.13,SSW,205,13.0,18.0,29,0.00,,,0.00,VWS V14.01,2013-01-19 19:26:00,
2013-01-19 14:30:00,53.9,21.6,30.12,SSW,205,10.0,18.0,28,0.00,,,0.00,VWS V14.01,2013-01-19 19:30:00,
2013-01-19 14:31:00,53.9,21.6,30.12,SW,221,11.0,18.0,28,0.00,,,0.00,VWS V14.01,2013-01-19 19:31:00,
2013-01-19 14:40:00,54.1,21.7,30.12,South,179,8.0,18.0,28,0.00,,,0.00,VWS V14.01,2013-01-19 19:40:00,
2013-01-19 14:41:00,54.1,21.7,30.12,SSW,207,5.0,18.0,28,0.00,,,0.00,VWS V14.01,2013-01-19 19:41:00,
2013-01-19 14:50:00,53.9,21.6,30.11,SW,221,5.0,18.0,28,0.00,,,0.00,VWS V14.01,2013-01-19 19:50:00,
2013-01-19 14:52:00,54.1,22.6,30.11,South,180,7.0,18.0,29,0.00,,,0.00,VWS V14.01,2013-01-19 19:52:00,
2013-01-19 14:57:00,54.4,22.0,30.11,SW,221,7.0,18.0,28,0.00,,,0.00,VWS V14.01,2013-01-19 19:57:00,
2013-01-19 15:00:00,54.4,22.8,30.11,SSW,202,6.0,18.0,29,0.00,,,0.00,VWS V14.01,2013-01-19 20:00:00,
2013-01-19 15:02:00,54.4,23.6,30.11,SSW,194,4.0,18.0,30,0.00,,,0.00,VWS V14.01,2013-01-19 20:02:00,
2013-01-19 15:07:00,54.5,24.5,30.11,SW,218,9.0,18.0,31,0.00,,,0.00,VWS V14.01,2013-01-19 20:07:00,
2013-01-19 15:10:00,54.5,24.5,30.11,South,171,10.0,18.0,31,0.00,,,0.00,VWS V14.01,2013-01-19 20:10:00,
2013-01-19 15:12:00,54.4,24.4,30.11,South,189,3.0,18.0,31,0.04,,,0.00,VWS V14.01,2013-01-19 20:12:00,
2013-01-19 15:17:00,54.1,24.2,30.10,South,188,9.0,18.0,31,0.04,,,0.00,VWS V14.01,2013-01-19 20:17:00,
2013-01-19 15:20:00,53.9,24.7,30.10,SSW,197,6.0,18.0,32,0.04,,,0.00,VWS V14.01,2013-01-19 20:20:00,
2013-01-19 15:22:00,53.9,24.0,30.10,SW,219,13.0,18.0,31,0.00,,,0.00,VWS V14.01,2013-01-19 20:22:00,
2013-01-19 15:27:00,53.8,23.9,30.10,SSW,213,4.0,18.0,31,0.00,,,0.00,VWS V14.01,2013-01-19 20:27:00,
2013-01-19 15:30:00,53.8,23.9,30.09,SW,219,6.0,18.0,31,0.00,,,0.00,VWS V14.01,2013-01-19 20:30:00,
2013-01-19 15:32:00,53.6,24.5,30.09,SSE,163,4.0,18.0,32,0.00,,,0.00,VWS V14.01,2013-01-19 20:32:00,
2013-01-19 15:40:00,53.5,24.4,30.09,SSW,207,7.0,18.0,32,0.00,,,0.00,VWS V14.01,2013-01-19 20:40:00,
2013-01-19 15:43:00,53.3,25.0,30.09,SSW,198,7.0,18.0,33,0.00,,,0.00,VWS V14.01,2013-01-19 20:43:00,
2013-01-19 15:48:00,53.1,24.8,30.09,SSW,200,3.0,18.0,33,0.00,,,0.00,VWS V14.01,2013-01-19 20:48:00,
2013-01-19 15:50:00,53.1,24.8,30.09,SSW,194,7.0,18.0,33,0.00,,,0.00,VWS V14.01,2013-01-19 20:50:00,
2013-01-19 15:53:00,52.9,24.6,30.09,South,172,3.0,18.0,33,0.00,,,0.00,VWS V14.01,2013-01-19 20:53:00,
2013-01-19 16:00:00,52.8,24.5,30.09,SW,217,6.0,18.0,33,0.00,,,0.00,VWS V14.01,2013-01-19 21:00:00,
2013-01-19 16:03:00,52.6,25.0,30.09,SSW,194,6.0,18.0,34,0.00,,,0.00,VWS V14.01,2013-01-19 21:03:00,
2013-01-19 16:08:00,52.5,25.0,30.09,South,180,6.0,18.0,34,0.00,,,0.00,VWS V14.01,2013-01-19 21:08:00,
2013-01-19 16:10:00,52.3,24.8,30.09,SSW,209,4.0,18.0,34,0.00,,,0.00,VWS V14.01,2013-01-19 21:10:00,
2013-01-19 16:13:00,52.2,24.7,30.09,SW,231,5.0,18.0,34,0.00,,,0.00,VWS V14.01,2013-01-19 21:13:00,
2013-01-19 16:18:00,52.0,24.5,30.09,SW,225,6.0,18.0,34,0.00,,,0.00,VWS V14.01,2013-01-19 21:18:00,
2013-01-19 16:20:00,51.9,23.7,30.09,SSW,213,4.0,18.0,33,0.00,,,0.00,VWS V14.01,2013-01-19 21:20:00,
2013-01-19 16:23:00,51.7,25.0,30.09,SW,217,4.0,18.0,35,0.00,,,0.00,VWS V14.01,2013-01-19 21:23:00,
2013-01-19 16:29:00,51.7,25.0,30.09,SSW,206,2.0,18.0,35,0.00,,,0.00,VWS V14.01,2013-01-19 21:29:00,
2013-01-19 16:30:00,51.7,25.0,30.09,SSW,206,2.0,18.0,35,0.00,,,0.00,VWS V14.01,2013-01-19 21:30:00,
2013-01-19 16:34:00,51.7,25.0,30.09,SSW,206,2.0,18.0,35,0.00,,,0.00,VWS V14.01,2013-01-19 21:34:00,
2013-01-19 16:39:00,51.7,25.0,30.09,SSW,206,2.0,18.0,35,0.00,,,0.00,VWS V14.01,2013-01-19 21:39:00,
2013-01-19 16:40:00,51.7,25.0,30.09,SSW,206,2.0,18.0,35,0.00,,,0.00,VWS V14.01,2013-01-19 21:40:00,
2013-01-19 16:44:00,51.7,25.0,30.07,SSW,206,2.0,18.0,35,0.00,,,0.00,VWS V14.01,2013-01-19 21:44:00,
2013-01-19 16:49:00,51.7,25.0,30.07,SSW,206,2.0,18.0,35,0.00,,,0.00,VWS V14.01,2013-01-19 21:49:00,
2013-01-19 16:50:00,51.7,25.0,30.07,SSW,206,2.0,18.0,35,0.00,,,0.00,VWS V14.01,2013-01-19 21:50:00,
2013-01-19 16:54:00,49.9,25.3,30.07,SSW,205,1.0,18.0,38,0.00,,,0.00,VWS V14.01,2013-01-19 21:54:00,
2013-01-19 16:59:00,49.8,25.2,30.08,South,191,3.0,18.0,38,0.00,,,0.00,VWS V14.01,2013-01-19 21:59:00,
2013-01-19 17:00:00,49.6,25.0,30.08,SSW,212,5.0,18.0,38,0.00,,,0.00,VWS V14.01,2013-01-19 22:00:00,
2013-01-19 17:04:00,49.5,25.6,30.08,South,175,5.0,18.0,39,0.00,,,0.00,VWS V14.01,2013-01-19 22:04:00,
2013-01-19 17:09:00,49.2,24.7,30.08,SSW,204,2.0,18.0,38,0.00,,,0.00,VWS V14.01,2013-01-19 22:09:00,
2013-01-19 17:10:00,49.2,25.3,30.08,SSW,195,3.0,18.0,39,0.00,,,0.00,VWS V14.01,2013-01-19 22:10:00,
2013-01-19 17:14:00,49.1,24.6,30.08,South,190,4.0,18.0,38,0.00,,,0.00,VWS V14.01,2013-01-19 22:14:00,
2013-01-19 17:19:00,48.8,25.0,30.08,SW,214,3.0,18.0,39,0.00,,,0.00,VWS V14.01,2013-01-19 22:19:00,
2013-01-19 17:20:00,48.8,25.6,30.08,SSW,195,2.0,18.0,40,0.00,,,0.00,VWS V14.01,2013-01-19 22:20:00,
2013-01-19 17:25:00,48.6,24.8,30.08,SSW,208,3.0,18.0,39,0.00,,,0.00,VWS V14.01,2013-01-19 22:25:00,
2013-01-19 17:30:00,48.3,24.5,30.08,South,182,3.0,18.0,39,0.00,,,0.00,VWS V14.01,2013-01-19 22:30:00,
2013-01-19 17:40:00,47.9,24.8,30.08,South,185,4.0,18.0,40,0.00,,,0.00,VWS V14.01,2013-01-19 22:40:00,
2013-01-19 17:45:00,47.7,24.6,30.07,South,184,4.0,18.0,40,0.00,,,0.00,VWS V14.01,2013-01-19 22:45:00,
2013-01-19 17:50:00,47.7,24.6,30.07,SSW,198,4.0,18.0,40,0.00,,,0.00,VWS V14.01,2013-01-19 22:50:00,
2013-01-19 18:00:00,47.7,24.0,30.07,SSW,205,5.0,18.0,39,0.00,,,0.00,VWS V14.01,2013-01-19 23:00:00,
2013-01-19 18:10:00,47.7,24.0,30.07,SW,219,5.0,18.0,39,0.00,,,0.00,VWS V14.01,2013-01-19 23:10:00,
2013-01-19 18:20:00,47.6,23.3,30.07,SSW,212,3.0,18.0,38,0.00,,,0.00,VWS V14.01,2013-01-19 23:20:00,
2013-01-19 18:30:00,47.4,24.3,30.06,South,180,5.0,18.0,40,0.00,,,0.00,VWS V14.01,2013-01-19 23:30:00,
2013-01-19 18:35:00,48.3,24.5,30.08,SSW,207,3.0,18.0,39,0.00,,,0.00,VWS V14.01,2013-01-19 23:35:00,
2013-01-19 18:40:00,48.2,25.0,30.08,South,184,4.0,18.0,40,0.00,,,0.00,VWS V14.01,2013-01-19 23:40:00,
2013-01-19 18:45:00,47.9,24.8,30.08,South,182,2.0,18.0,40,0.00,,,0.00,VWS V14.01,2013-01-19 23:45:00,
2013-01-19 18:50:00,47.0,24.5,30.07,SW,214,6.0,18.0,41,0.00,,,0.00,VWS V14.01,2013-01-19 23:50:00,
2013-01-19 18:55:00,47.7,24.6,30.07,South,182,9.0,18.0,40,0.00,,,0.00,VWS V14.01,2013-01-19 23:55:00,
2013-01-19 19:00:00,47.7,24.0,30.07,South,190,6.0,18.0,39,0.00,,,0.00,VWS V14.01,2013-01-20 00:00:00,
2013-01-19 19:05:00,47.7,24.0,30.07,South,188,6.0,18.0,39,0.00,,,0.00,VWS V14.01,2013-01-20 00:05:00,
2013-01-19 19:10:00,47.7,24.0,30.07,SSW,202,3.0,18.0,39,0.00,,,0.00,VWS V14.01,2013-01-20 00:10:00,
2013-01-19 19:20:00,47.6,23.9,30.07,SSW,192,7.0,18.0,39,0.00,,,0.00,VWS V14.01,2013-01-20 00:20:00,
2013-01-19 19:30:00,47.6,23.9,30.07,SSW,198,3.0,18.0,39,0.00,,,0.00,VWS V14.01,2013-01-20 00:30:00,
2013-01-19 19:35:00,47.4,23.7,30.06,South,176,0.0,18.0,39,0.00,,,0.00,VWS V14.01,2013-01-20 00:35:00,
2013-01-19 19:40:00,47.3,23.6,30.06,SSE,164,6.0,18.0,39,0.00,,,0.00,VWS V14.01,2013-01-20 00:40:00,
2013-01-19 19:45:00,47.1,24.0,30.06,SSW,203,3.0,18.0,40,0.00,,,0.00,VWS V14.01,2013-01-20 00:45:00,
2013-01-19 19:50:00,47.0,24.0,30.07,SE,143,2.0,18.0,40,0.00,,,0.00,VWS V14.01,2013-01-20 00:50:00,
2013-01-19 19:55:00,47.0,24.5,30.07,SW,217,5.0,18.0,41,0.00,,,0.00,VWS V14.01,2013-01-20 00:55:00,
2013-01-19 20:00:00,46.5,25.8,30.06,SSW,194,6.0,18.0,44,0.00,,,0.00,VWS V14.01,2013-01-20 01:00:00,
2013-01-19 20:01:00,46.8,24.4,30.07,SSW,207,4.0,18.0,41,0.00,,,0.00,VWS V14.01,2013-01-20 01:01:00,
2013-01-19 20:06:00,46.8,24.4,30.07,SSW,200,4.0,18.0,41,0.00,,,0.00,VWS V14.01,2013-01-20 01:06:00,
2013-01-19 20:10:00,46.4,26.2,30.06,SSW,194,5.0,18.0,45,0.00,,,0.00,VWS V14.01,2013-01-20 01:10:00,
2013-01-19 20:11:00,46.7,24.3,30.07,SSW,195,5.0,18.0,41,0.00,,,0.00,VWS V14.01,2013-01-20 01:11:00,
2013-01-19 20:16:00,46.7,24.3,30.07,South,175,3.0,18.0,41,0.00,,,0.00,VWS V14.01,2013-01-20 01:16:00,
2013-01-19 20:20:00,46.1,26.5,30.06,SSW,201,3.0,18.0,46,0.00,,,0.00,VWS V14.01,2013-01-20 01:20:00,
2013-01-19 20:21:00,46.5,24.7,30.07,SSW,205,6.0,18.0,42,0.00,,,0.00,VWS V14.01,2013-01-20 01:21:00,
2013-01-19 20:26:00,46.4,24.6,30.07,SW,219,8.0,18.0,42,0.00,,,0.00,VWS V14.01,2013-01-20 01:26:00,
2013-01-19 20:30:00,46.1,27.0,30.06,SSW,202,6.0,12.0,47,0.00,,,0.00,VWS V14.01,2013-01-20 01:30:00,
2013-01-19 20:31:00,46.4,24.6,30.07,SW,216,4.0,18.0,42,0.00,,,0.00,VWS V14.01,2013-01-20 01:31:00,
2013-01-19 20:36:00,46.4,24.6,30.07,SSW,202,6.0,18.0,42,0.00,,,0.00,VWS V14.01,2013-01-20 01:36:00,
2013-01-19 20:41:00,46.5,25.2,30.07,SSW,208,6.0,18.0,43,0.00,,,0.00,VWS V14.01,2013-01-20 01:41:00,
2013-01-19 20:46:00,46.5,25.2,30.07,SSW,212,5.0,18.0,43,0.00,,,0.00,VWS V14.01,2013-01-20 01:46:00,
2013-01-19 20:50:00,46.2,27.1,30.07,SSW,209,6.0,12.0,47,0.00,,,0.00,VWS V14.01,2013-01-20 01:50:00,
2013-01-19 20:51:00,46.5,25.8,30.06,SSW,202,4.0,18.0,44,0.00,,,0.00,VWS V14.01,2013-01-20 01:51:00,
2013-01-19 20:56:00,46.5,25.8,30.06,SSW,200,5.0,18.0,44,0.00,,,0.00,VWS V14.01,2013-01-20 01:56:00,
2013-01-19 21:00:00,46.1,27.5,30.07,SSW,202,8.0,12.0,48,0.00,,,0.00,VWS V14.01,2013-01-20 02:00:00,
2013-01-19 21:01:00,46.5,25.8,30.06,SSW,211,5.0,18.0,44,0.00,,,0.00,VWS V14.01,2013-01-20 02:01:00,
2013-01-19 21:06:00,46.0,27.4,30.07,SW,225,9.0,12.0,48,0.00,,,0.00,VWS V14.01,2013-01-20 02:06:00,
2013-01-19 21:07:00,46.5,25.8,30.06,South,191,6.0,18.0,44,0.00,,,0.00,VWS V14.01,2013-01-20 02:07:00,
2013-01-19 21:10:00,46.0,27.4,30.07,SSW,196,7.0,12.0,48,0.00,,,0.00,VWS V14.01,2013-01-20 02:10:00,
2013-01-19 21:11:00,46.0,27.4,30.07,SW,225,8.0,12.0,48,0.00,,,0.00,VWS V14.01,2013-01-20 02:11:00,
2013-01-19 21:12:00,46.4,26.2,30.06,South,190,5.0,18.0,45,0.00,,,0.00,VWS V14.01,2013-01-20 02:12:00,
2013-01-19 21:17:00,46.2,26.0,30.06,SSW,196,7.0,18.0,45,0.00,,,0.00,VWS V14.01,2013-01-20 02:17:00,
2013-01-19 21:20:00,46.0,27.9,30.07,SSW,208,5.0,12.0,49,0.00,,,0.00,VWS V14.01,2013-01-20 02:20:00,
2013-01-19 21:22:00,46.0,27.9,30.07,SW,224,4.0,12.0,49,0.00,,,0.00,VWS V14.01,2013-01-20 02:22:00,
2013-01-19 21:24:00,46.1,26.5,30.06,SSW,201,3.0,18.0,46,0.00,,,0.00,VWS V14.01,2013-01-20 02:24:00,
2013-01-19 21:30:00,45.8,27.7,30.07,SSW,212,6.0,12.0,49,0.00,,,0.00,VWS V14.01,2013-01-20 02:30:00,
2013-01-19 21:32:00,45.8,27.7,30.07,SW,215,8.0,12.0,49,0.00,,,0.00,VWS V14.01,2013-01-20 02:32:00,
2013-01-19 21:37:00,45.7,28.1,30.07,SW,217,7.0,12.0,50,0.00,,,0.00,VWS V14.01,2013-01-20 02:37:00,
2013-01-19 21:40:00,45.7,28.1,30.07,SSW,213,7.0,12.0,50,0.00,,,0.00,VWS V14.01,2013-01-20 02:40:00,
2013-01-19 21:42:00,45.7,28.1,30.07,SW,215,4.0,12.0,50,0.00,,,0.00,VWS V14.01,2013-01-20 02:42:00,
2013-01-19 21:47:00,45.7,28.1,30.07,SSW,206,5.0,12.0,50,0.00,,,0.00,VWS V14.01,2013-01-20 02:47:00,
2013-01-19 21:50:00,45.5,28.0,30.07,SW,223,6.0,12.0,50,0.00,,,0.00,VWS V14.01,2013-01-20 02:50:00,
2013-01-19 21:52:00,45.5,28.0,30.07,SSW,198,7.0,12.0,50,0.00,,,0.00,VWS V14.01,2013-01-20 02:52:00,
2013-01-19 21:57:00,45.5,28.0,30.07,SW,225,7.0,12.0,50,0.00,,,0.00,VWS V14.01,2013-01-20 02:57:00,
2013-01-19 22:00:00,45.5,28.0,30.07,SW,219,4.0,12.0,50,0.00,,,0.00,VWS V14.01,2013-01-20 03:00:00,
2013-01-19 22:02:00,45.5,28.0,30.07,SSW,212,8.0,12.0,50,0.00,,,0.00,VWS V14.01,2013-01-20 03:02:00,
2013-01-19 22:07:00,45.5,28.0,30.07,SW,223,7.0,12.0,50,0.00,,,0.00,VWS V14.01,2013-01-20 03:07:00,
2013-01-19 22:10:00,45.5,28.0,30.07,SW,219,5.0,12.0,50,0.00,,,0.00,VWS V14.01,2013-01-20 03:10:00,
2013-01-19 22:12:00,45.5,28.0,30.07,SW,225,11.0,12.0,50,0.00,,,0.00,VWS V14.01,2013-01-20 03:12:00,
2013-01-19 22:17:00,45.5,28.0,30.07,SW,222,5.0,12.0,50,0.00,,,0.00,VWS V14.01,2013-01-20 03:17:00,
2013-01-19 22:20:00,45.5,28.0,30.07,SW,221,7.0,12.0,50,0.00,,,0.00,VWS V14.01,2013-01-20 03:20:00,
2013-01-19 22:22:00,45.4,28.4,30.07,SW,219,6.0,12.0,51,0.00,,,0.00,VWS V14.01,2013-01-20 03:22:00,
2013-01-19 22:28:00,45.4,27.9,30.07,WSW,247,5.0,12.0,50,0.00,,,0.00,VWS V14.01,2013-01-20 03:28:00,
2013-01-19 22:30:00,45.4,27.9,30.07,SW,227,5.0,12.0,50,0.00,,,0.00,VWS V14.01,2013-01-20 03:30:00,
2013-01-19 22:33:00,45.2,28.2,30.07,SSW,207,7.0,12.0,51,0.00,,,0.00,VWS V14.01,2013-01-20 03:33:00,
2013-01-19 22:38:00,45.4,27.9,30.07,SSW,196,8.0,12.0,50,0.00,,,0.00,VWS V14.01,2013-01-20 03:38:00,
2013-01-19 22:40:00,45.2,28.2,30.07,SW,216,10.0,12.0,51,0.00,,,0.00,VWS V14.01,2013-01-20 03:40:00,
2013-01-19 22:43:00,45.2,28.2,30.07,WSW,242,8.0,12.0,51,0.00,,,0.00,VWS V14.01,2013-01-20 03:43:00,
2013-01-19 22:48:00,45.5,28.0,30.06,SW,229,13.0,13.0,50,0.00,,,0.00,VWS V14.01,2013-01-20 03:48:00,
2013-01-19 22:50:00,45.5,28.0,30.06,SSW,192,6.0,12.0,50,0.00,,,0.00,VWS V14.01,2013-01-20 03:50:00,
2013-01-19 22:53:00,45.7,28.1,30.06,SW,234,10.0,12.0,50,0.00,,,0.00,VWS V14.01,2013-01-20 03:53:00,
2013-01-19 22:58:00,45.7,28.1,30.06,SW,236,5.0,12.0,50,0.00,,,0.00,VWS V14.01,2013-01-20 03:58:00,
2013-01-19 23:00:00,45.7,28.1,30.06,WSW,243,8.0,12.0,50,0.00,,,0.00,VWS V14.01,2013-01-20 04:00:00,
2013-01-19 23:03:00,45.7,28.1,30.06,WSW,238,8.0,12.0,50,0.00,,,0.00,VWS V14.01,2013-01-20 04:03:00,
2013-01-19 23:08:00,45.7,28.1,30.06,SW,215,11.0,12.0,50,0.00,,,0.00,VWS V14.01,2013-01-20 04:08:00,
2013-01-19 23:10:00,45.7,28.1,30.06,SSW,192,9.0,12.0,50,0.00,,,0.00,VWS V14.01,2013-01-20 04:10:00,
2013-01-19 23:13:00,45.7,28.1,30.06,SW,223,8.0,12.0,50,0.00,,,0.00,VWS V14.01,2013-01-20 04:13:00,
2013-01-19 23:18:00,45.7,28.1,30.06,SW,217,8.0,12.0,50,0.00,,,0.00,VWS V14.01,2013-01-20 04:18:00,
2013-01-19 23:20:00,45.7,28.1,30.06,SW,219,6.0,12.0,50,0.00,,,0.00,VWS V14.01,2013-01-20 04:20:00,
2013-01-19 23:23:00,45.7,28.1,30.06,SSW,213,7.0,12.0,50,0.00,,,0.00,VWS V14.01,2013-01-20 04:23:00,
2013-01-19 23:28:00,45.5,28.4,30.06,SSW,213,4.0,12.0,51,0.00,,,0.00,VWS V14.01,2013-01-20 04:28:00,
2013-01-19 23:30:00,45.5,28.4,30.06,SW,226,8.0,12.0,51,0.00,,,0.00,VWS V14.01,2013-01-20 04:30:00,
2013-01-19 23:33:00,45.4,28.4,30.06,SW,221,4.0,12.0,51,0.00,,,0.00,VWS V14.01,2013-01-20 04:33:00,
2013-01-19 23:38:00,45.4,28.4,30.06,SW,225,8.0,12.0,51,0.00,,,0.00,VWS V14.01,2013-01-20 04:38:00,
2013-01-19 23:40:00,45.4,28.4,30.06,SW,236,8.0,12.0,51,0.00,,,0.00,VWS V14.01,2013-01-20 04:40:00,
2013-01-19 23:43:00,45.4,28.4,30.06,WSW,244,5.0,12.0,51,0.00,,,0.00,VWS V14.01,2013-01-20 04:43:00,
2013-01-19 23:48:00,45.2,28.2,30.07,SW,234,5.0,12.0,51,0.00,,,0.00,VWS V14.01,2013-01-20 04:48:00,
2013-01-19 23:50:00,45.1,28.5,30.07,SW,216,8.0,12.0,52,0.00,,,0.00,VWS V14.01,2013-01-20 04:50:00,
2013-01-19 23:53:00,45.2,28.6,30.07,SW,216,5.0,12.0,52,0.00,,,0.00,VWS V14.01,2013-01-20 04:53:00,
2013-01-19 23:58:00,45.2,28.6,30.07,SSW,209,8.0,12.0,52,0.00,,,0.00,VWS V14.01,2013-01-20 04:58:00,